White Plains, New York
Current Conditions -  °F | °C
As of 11:56 AM on Saturday 22 Nov 2014 (Local Time) from KHPN Reporting Station
Clear Clear  
Wind Chill: 29°   Ceiling: Unl
Heat Index: 36°   Visibility: 10mi
Dew Point:   Wind: 9mph
Humidity: 33%   Direction: 220°SW
Pressure: 30.34"   Gusts: 20mph
Location:  41.03°N, 73.76°W
Report Text: KHPN 221656Z 22008G17KT 180V250 10SM CLR 02/M13 A3034 RMK AO2 SLP282 T00221128
Loading
Personal Weather Stations






























Interactive Weather Map New forecast layout! Learn more

10-Day Weather Forecast

Advertisements
Track Severe Weather on mobile